Time;durP1;ratioP1;P1;durP2;ratioP2;P2;SDS_P1;SDS_P2;PMS_P1;PMS_P2;Temp;Humidity;BMP_temperature;BMP_pressure;BME280_temperature;BME280_humidity;BME280_pressure;Samples;Min_cycle;Max_cycle;Signal;HPM_P1;HPM_P2
2023/01/06 00:01:17;;;;;;;0.80;0.30;;;7.70;99.90;;;;;;4990150;28;20045;-58
2023/01/06 00:03:50;;;;;;;2.05;0.30;;;7.70;99.90;;;;;;4986530;28;20049;-58
2023/01/06 00:06:26;;;;;;;0.60;0.25;;;7.60;99.90;;;;;;4987869;28;20061;-58
2023/01/06 00:08:55;;;;;;;1.33;0.75;;;7.60;99.90;;;;;;4989591;28;20070;-59
2023/01/06 00:11:24;;;;;;;1.55;0.20;;;7.60;99.90;;;;;;4987862;28;20118;-58
2023/01/06 00:13:53;;;;;;;1.17;0.40;;;7.60;99.90;;;;;;4990910;28;20070;-58
2023/01/06 00:16:21;;;;;;;0.30;0.20;;;7.60;99.90;;;;;;4991423;28;20042;-59
2023/01/06 00:18:53;;;;;;;0.52;0.10;;;7.60;99.90;;;;;;4991002;28;20046;-58
2023/01/06 00:21:21;;;;;;;2.83;0.20;;;7.60;99.90;;;;;;4990919;28;20046;-59
2023/01/06 00:23:49;;;;;;;0.00;0.00;;;7.60;99.90;;;;;;4989655;28;20053;-59
2023/01/06 00:26:17;;;;;;;2.92;0.30;;;7.50;99.90;;;;;;4990792;28;20042;-58
2023/01/06 00:28:46;;;;;;;0.57;0.10;;;7.50;99.90;;;;;;4988082;28;20046;-58
2023/01/06 00:31:15;;;;;;;1.35;0.10;;;7.50;99.90;;;;;;5021338;28;20061;-58
2023/01/06 00:33:43;;;;;;;1.77;0.15;;;7.40;99.90;;;;;;4990041;28;20054;-58
2023/01/06 00:36:12;;;;;;;0.00;0.00;;;7.40;99.90;;;;;;4989352;28;20057;-58
2023/01/06 00:38:41;;;;;;;0.40;0.10;;;7.40;99.90;;;;;;4990116;28;20050;-58
2023/01/06 00:43:58;;;;;;;1.20;0.20;;;7.20;99.90;;;;;;5016838;28;20590;-58
2023/01/06 00:46:27;;;;;;;0.43;0.13;;;7.20;99.90;;;;;;5010297;28;20046;-58
2023/01/06 00:48:56;;;;;;;;;;;7.10;99.90;;;;;;4999605;28;20402;-59
2023/01/06 00:51:38;;;;;;;0.52;0.10;;;7.00;99.90;;;;;;4990726;28;20329;-58
2023/01/06 00:54:08;;;;;;;1.88;0.40;;;7.00;99.90;;;;;;4988604;28;20065;-59
2023/01/06 00:56:40;;;;;;;;;;;6.90;99.90;;;;;;4991125;28;20050;-59
2023/01/06 00:59:09;;;;;;;1.75;0.30;;;6.90;99.90;;;;;;4990095;28;19929;-58
2023/01/06 01:01:37;;;;;;;1.70;0.30;;;6.90;99.90;;;;;;4988202;28;20479;-58
2023/01/06 01:04:06;;;;;;;4.57;0.35;;;6.70;99.90;;;;;;4997632;28;20512;-59
2023/01/06 01:06:35;;;;;;;0.40;0.20;;;6.70;99.90;;;;;;4999292;28;20035;-59
2023/01/06 01:09:05;;;;;;;0.45;0.20;;;6.70;99.90;;;;;;4973404;28;20054;-58
2023/01/06 01:14:20;;;;;;;3.80;0.55;;;6.70;99.90;;;;;;4984418;28;20050;-58
2023/01/06 01:16:48;;;;;;;2.97;0.50;;;6.60;99.90;;;;;;4990194;28;20406;-58
2023/01/06 01:19:16;;;;;;;1.75;0.47;;;6.60;99.90;;;;;;4989977;28;20061;-58
2023/01/06 01:21:45;;;;;;;4.37;0.40;;;6.60;99.90;;;;;;4988125;28;20056;-58
2023/01/06 01:24:13;;;;;;;3.55;0.68;;;6.60;99.90;;;;;;5021026;28;20051;-59
2023/01/06 01:26:41;;;;;;;2.83;0.20;;;6.60;99.90;;;;;;4989975;28;20042;-59
2023/01/06 01:29:13;;;;;;;1.70;0.35;;;6.60;99.90;;;;;;4994488;28;20043;-58
2023/01/06 01:31:42;;;;;;;4.22;0.35;;;6.70;99.90;;;;;;4990070;28;20053;-58
2023/01/06 01:34:12;;;;;;;2.35;0.35;;;6.70;99.90;;;;;;5005093;28;20046;-59
2023/01/06 01:36:41;;;;;;;2.47;0.13;;;6.70;99.90;;;;;;4989044;28;20054;-60
2023/01/06 01:39:10;;;;;;;5.70;0.45;;;6.80;99.90;;;;;;4992756;28;20054;-59
2023/01/06 01:41:38;;;;;;;2.97;0.50;;;6.80;99.90;;;;;;4994208;28;20491;-58
2023/01/06 01:44:50;;;;;;;2.30;0.38;;;6.70;99.90;;;;;;4987726;28;20061;-60
2023/01/06 01:47:40;;;;;;;2.70;0.60;;;6.70;99.90;;;;;;4986077;28;20042;-60
2023/01/06 01:50:11;;;;;;;;;;;6.70;99.90;;;;;;5011476;28;20452;-59
2023/01/06 01:52:41;;;;;;;6.22;0.93;;;6.60;99.90;;;;;;4998776;28;19929;-58
2023/01/06 01:55:09;;;;;;;;;;;6.60;99.90;;;;;;4993113;28;20046;-58
2023/01/06 01:57:43;;;;;;;3.47;0.45;;;6.50;99.90;;;;;;5008500;28;19921;-59
2023/01/06 02:00:11;;;;;;;4.35;0.60;;;6.50;99.90;;;;;;5006989;28;20057;-58
2023/01/06 02:02:40;;;;;;;5.10;0.43;;;6.50;99.90;;;;;;4993447;28;20042;-60
2023/01/06 02:05:12;;;;;;;5.97;0.70;;;6.40;99.90;;;;;;5008306;28;20053;-60
2023/01/06 02:07:40;;;;;;;2.08;0.40;;;6.30;99.90;;;;;;4989445;28;20409;-59
2023/01/06 02:10:17;;;;;;;3.92;0.60;;;6.30;99.90;;;;;;4992823;28;20057;-61
2023/01/06 02:12:48;;;;;;;4.30;0.70;;;6.30;99.90;;;;;;4992964;28;20117;-60
2023/01/06 02:15:19;;;;;;;4.43;0.60;;;6.30;99.90;;;;;;5011970;28;20044;-63
2023/01/06 02:18:04;;;;;;;5.97;0.90;;;6.30;99.90;;;;;;4980333;28;20505;-61
2023/01/06 02:20:47;;;;;;;6.10;1.00;;;6.40;99.90;;;;;;5028366;28;20501;-60
2023/01/06 02:23:22;;;;;;;3.83;0.90;;;6.50;99.90;;;;;;5028001;28;20038;-62
2023/01/06 02:26:24;;;;;;;5.07;0.93;;;6.50;99.90;;;;;;4993832;28;20054;-62
2023/01/06 02:29:10;;;;;;;3.58;0.90;;;6.50;99.90;;;;;;5024430;28;20050;-62
2023/01/06 02:31:54;;;;;;;7.50;0.95;;;6.40;99.90;;;;;;4988295;28;20532;-60
2023/01/06 02:34:46;;;;;;;5.15;0.73;;;6.40;99.90;;;;;;5023782;28;20057;-61
2023/01/06 02:37:23;;;;;;;4.40;0.70;;;6.40;99.90;;;;;;4993568;28;20046;-60
2023/01/06 02:40:01;;;;;;;2.40;0.70;;;6.30;99.90;;;;;;4991505;28;20426;-60
2023/01/06 02:42:59;;;;;;;4.25;0.80;;;6.20;99.90;;;;;;4992618;28;20049;-62
2023/01/06 02:45:40;;;;;;;2.92;0.57;;;6.20;99.90;;;;;;4991323;28;20494;-62
2023/01/06 02:48:19;;;;;;;7.18;0.80;;;6.20;99.90;;;;;;4991976;28;20053;-59
2023/01/06 02:50:54;;;;;;;3.93;0.70;;;6.20;99.90;;;;;;4993441;28;20045;-61
2023/01/06 02:53:44;;;;;;;2.65;0.60;;;6.20;99.90;;;;;;4992570;28;20050;-60
2023/01/06 02:56:11;;;;;;;2.40;1.02;;;6.20;99.90;;;;;;4992186;28;20053;-64
2023/01/06 02:58:56;;;;;;;4.28;1.38;;;6.20;99.90;;;;;;5023960;28;20053;-63
2023/01/06 03:01:31;;;;;;;8.93;0.85;;;6.20;99.90;;;;;;4991137;28;20046;-63
2023/01/06 03:04:04;;;;;;;8.20;0.65;;;6.20;99.90;;;;;;5024495;28;20054;-63
2023/01/06 03:06:35;;;;;;;3.70;0.63;;;6.20;99.90;;;;;;5008364;28;20042;-60
2023/01/06 03:09:04;;;;;;;6.20;0.80;;;6.10;99.90;;;;;;5008022;28;20050;-62
2023/01/06 03:11:43;;;;;;;4.97;0.85;;;6.10;99.90;;;;;;5006377;28;20061;-63
2023/01/06 03:14:21;;;;;;;13.63;1.13;;;6.10;99.90;;;;;;5021983;28;20050;-60
2023/01/06 03:16:49;;;;;;;4.72;0.63;;;6.00;99.90;;;;;;5007128;28;20065;-60
2023/01/06 03:19:17;;;;;;;9.52;1.15;;;5.90;99.90;;;;;;5007933;28;20054;-59
2023/01/06 03:21:48;;;;;;;8.43;0.70;;;5.80;99.90;;;;;;5006819;28;20459;-60
2023/01/06 03:24:19;;;;;;;11.05;0.80;;;5.80;99.90;;;;;;4991615;28;20042;-60
2023/01/06 03:26:49;;;;;;;8.00;1.00;;;5.70;99.90;;;;;;4989775;28;20043;-59
2023/01/06 03:29:20;;;;;;;4.25;1.10;;;5.70;99.90;;;;;;4963736;28;1285034;-59
2023/01/06 03:31:55;;;;;;;6.75;0.90;;;5.60;99.90;;;;;;4992138;28;20053;-60
2023/01/06 03:34:32;;;;;;;12.48;1.58;;;5.60;99.90;;;;;;4994008;28;20042;-60
2023/01/06 03:37:24;;;;;;;8.90;0.82;;;5.50;99.90;;;;;;5024228;28;20187;-59
2023/01/06 03:40:08;;;;;;;12.15;1.13;;;5.40;99.90;;;;;;4992134;28;20054;-60
2023/01/06 03:45:50;;;;;;;7.22;0.80;;;5.30;99.90;;;;;;4992696;28;20047;-59
2023/01/06 03:48:42;;;;;;;10.07;0.77;;;5.30;99.90;;;;;;4990083;28;20045;-59
2023/01/06 03:51:16;;;;;;;3.85;0.45;;;5.20;99.90;;;;;;4990666;28;20482;-59
2023/01/06 03:53:45;;;;;;;11.13;1.42;;;5.10;99.90;;;;;;4992180;28;20049;-60
2023/01/06 03:56:27;;;;;;;6.72;0.60;;;5.00;99.90;;;;;;4990870;28;20050;-60
2023/01/06 03:58:59;;;;;;;6.78;0.60;;;5.00;99.90;;;;;;4989412;28;20051;-60
2023/01/06 04:01:28;;;;;;;2.85;0.80;;;4.90;99.90;;;;;;4990155;28;20053;-59
2023/01/06 04:03:57;;;;;;;6.97;0.50;;;4.90;99.90;;;;;;5021796;28;20053;-59
2023/01/06 04:06:28;;;;;;;5.18;0.70;;;4.80;99.90;;;;;;5022645;28;20049;-60
2023/01/06 04:08:55;;;;;;;6.05;1.08;;;4.80;99.90;;;;;;4991239;28;20050;-60
2023/01/06 04:14:10;;;;;;;19.98;2.20;;;4.60;99.90;;;;;;5003959;28;20046;-60
2023/01/06 04:16:37;;;;;;;13.27;1.58;;;5.20;99.90;;;;;;4988054;28;20402;-60
2023/01/06 04:19:07;;;;;;;;;;;4.60;99.90;;;;;;5007015;28;20085;-60
2023/01/06 04:21:35;;;;;;;6.03;1.20;;;4.60;99.90;;;;;;4990681;28;19926;-60
2023/01/06 04:24:03;;;;;;;11.80;1.48;;;4.50;99.90;;;;;;4991605;28;20046;-60
2023/01/06 04:26:32;;;;;;;10.55;1.10;;;4.50;99.90;;;;;;4992797;28;20061;-60
2023/01/06 04:29:01;;;;;;;14.10;2.42;;;4.50;99.90;;;;;;4989585;28;20666;-59
2023/01/06 04:31:29;;;;;;;5.23;0.90;;;4.50;99.90;;;;;;5022325;28;20042;-60
2023/01/06 04:33:57;;;;;;;17.63;1.70;;;4.50;99.90;;;;;;5020414;28;20061;-59
2023/01/06 04:36:25;;;;;;;12.52;1.73;;;4.50;99.90;;;;;;5005178;28;20050;-60
2023/01/06 04:38:55;;;;;;;12.27;1.55;;;4.60;99.90;;;;;;4989568;28;20046;-59
2023/01/06 04:41:23;;;;;;;8.48;1.13;;;4.50;99.90;;;;;;4991194;28;20053;-61
2023/01/06 04:43:50;;;;;;;18.85;1.77;;;4.60;99.90;;;;;;4988390;28;20482;-61
2023/01/06 04:46:18;;;;;;;8.43;0.98;;;4.60;99.90;;;;;;4990909;28;20042;-60
2023/01/06 04:48:45;;;;;;;25.13;2.55;;;4.60;99.90;;;;;;4991417;28;20049;-59
2023/01/06 04:51:13;;;;;;;8.13;1.10;;;4.60;99.90;;;;;;4989639;28;20391;-59
2023/01/06 04:53:41;;;;;;;20.13;1.85;;;4.70;99.90;;;;;;4987449;28;22001;-60
2023/01/06 04:56:11;;;;;;;24.77;2.17;;;4.60;99.90;;;;;;4990864;28;20049;-60
2023/01/06 04:58:39;;;;;;;30.98;2.10;;;4.70;99.90;;;;;;4979327;28;20078;-59
2023/01/06 05:01:09;;;;;;;19.50;2.08;;;4.80;99.90;;;;;;4989371;28;20533;-60
2023/01/06 05:03:38;;;;;;;17.88;2.10;;;4.80;99.90;;;;;;4990276;28;20090;-59
2023/01/06 05:06:08;;;;;;;15.43;1.55;;;4.80;99.90;;;;;;4990583;28;20062;-59
2023/01/06 05:08:38;;;;;;;10.77;2.13;;;4.80;99.90;;;;;;4991290;28;20486;-58
2023/01/06 05:11:09;;;;;;;16.07;2.53;;;4.80;99.90;;;;;;5022932;28;20053;-59
2023/01/06 05:13:38;;;;;;;13.50;2.08;;;4.80;99.90;;;;;;4973219;28;20054;-59
2023/01/06 05:16:07;;;;;;;12.65;1.40;;;4.80;99.90;;;;;;4990616;28;20049;-59
2023/01/06 05:18:36;;;;;;;25.05;2.13;;;4.80;99.90;;;;;;4989769;28;20053;-59
2023/01/06 05:21:03;;;;;;;17.52;1.63;;;4.80;99.90;;;;;;4989655;28;20057;-59
2023/01/06 05:23:31;;;;;;;20.92;2.17;;;4.90;99.90;;;;;;4991746;28;20053;-59
2023/01/06 05:25:59;;;;;;;16.95;1.77;;;4.90;99.90;;;;;;4993350;28;20045;-59
2023/01/06 05:28:28;;;;;;;16.15;2.85;;;4.90;99.90;;;;;;4989618;28;20061;-64
2023/01/06 05:31:03;;;;;;;18.27;1.73;;;4.90;99.90;;;;;;4991369;28;20101;-59
2023/01/06 05:33:32;;;;;;;22.02;2.92;;;4.90;99.90;;;;;;4991793;28;20046;-59
2023/01/06 05:36:02;;;;;;;19.33;1.60;;;4.90;99.90;;;;;;5007592;28;20046;-59
2023/01/06 05:38:30;;;;;;;13.07;1.88;;;4.90;99.90;;;;;;5004213;28;20054;-59
2023/01/06 05:41:01;;;;;;;22.08;1.58;;;;;;;;;;4988787;28;20513;-61
2023/01/06 05:43:29;;;;;;;14.25;1.77;;;4.90;99.90;;;;;;4989858;28;20051;-62
2023/01/06 05:45:56;;;;;;;21.33;2.15;;;4.90;99.90;;;;;;4988351;28;20054;-59
2023/01/06 05:48:26;;;;;;;16.10;1.67;;;4.90;99.90;;;;;;4982732;28;20057;-59
2023/01/06 05:51:07;;;;;;;16.30;1.60;;;4.90;99.90;;;;;;4988167;28;20034;-60
2023/01/06 05:53:37;;;;;;;12.27;2.15;;;4.90;99.90;;;;;;4987380;28;20490;-59
2023/01/06 05:56:06;;;;;;;23.13;2.17;;;4.80;99.90;;;;;;4992735;28;20050;-59
2023/01/06 05:58:35;;;;;;;12.93;2.28;;;4.90;99.90;;;;;;4994604;28;20046;-58
2023/01/06 06:01:03;;;;;;;20.05;2.15;;;4.90;99.90;;;;;;4987615;28;20063;-59
2023/01/06 06:03:32;;;;;;;18.80;2.33;;;4.90;99.90;;;;;;4982927;28;20047;-59
2023/01/06 06:06:04;;;;;;;17.85;2.55;;;4.80;99.90;;;;;;4986665;28;20050;-59
2023/01/06 06:08:32;;;;;;;21.73;2.10;;;4.80;99.90;;;;;;4987957;28;20049;-59
2023/01/06 06:11:04;;;;;;;17.88;1.60;;;4.80;99.90;;;;;;4988643;28;20049;-59
2023/01/06 06:13:32;;;;;;;13.00;2.55;;;4.90;99.90;;;;;;5000560;28;20049;-59
2023/01/06 06:16:20;;;;;;;15.25;1.50;;;4.80;99.90;;;;;;4997786;28;20494;-59
2023/01/06 06:18:53;;;;;;;13.20;1.50;;;4.80;99.90;;;;;;5005666;28;20055;-59
2023/01/06 06:21:24;;;;;;;15.45;1.85;;;4.80;99.90;;;;;;4988964;28;20402;-59
2023/01/06 06:23:53;;;;;;;19.45;2.15;;;4.70;99.90;;;;;;4991997;28;20046;-58
2023/01/06 06:26:22;;;;;;;14.82;1.67;;;4.70;99.90;;;;;;5014836;28;20050;-59
2023/01/06 06:28:50;;;;;;;17.80;2.05;;;4.60;99.90;;;;;;4996927;28;20038;-61
2023/01/06 06:31:23;;;;;;;10.25;1.67;;;4.60;99.90;;;;;;4992935;28;20057;-59
2023/01/06 06:33:52;;;;;;;20.00;1.50;;;4.50;99.90;;;;;;4991906;28;20053;-59
2023/01/06 06:36:20;;;;;;;17.73;2.10;;;4.50;99.90;;;;;;4992061;28;20046;-59
2023/01/06 06:38:49;;;;;;;17.55;1.48;;;4.40;99.90;;;;;;5003623;28;20292;-59
2023/01/06 06:41:18;;;;;;;9.90;1.88;;;4.40;99.90;;;;;;4990725;28;20038;-59
2023/01/06 06:43:48;;;;;;;19.45;1.70;;;4.30;99.90;;;;;;4988408;28;20375;-60
2023/01/06 06:46:15;;;;;;;;;;;4.30;99.90;;;;;;4991086;28;20057;-60
2023/01/06 06:48:43;;;;;;;11.27;1.90;;;4.20;99.90;;;;;;4992179;28;19925;-61
2023/01/06 06:51:15;;;;;;;17.92;2.83;;;4.20;99.90;;;;;;4991438;28;20046;-61
2023/01/06 06:53:44;;;;;;;20.50;1.95;;;4.20;99.90;;;;;;4989281;28;20064;-59
2023/01/06 06:56:13;;;;;;;11.65;1.50;;;4.10;99.90;;;;;;4987330;28;20039;-61
2023/01/06 06:58:41;;;;;;;16.27;1.80;;;4.10;99.90;;;;;;5000146;28;20058;-59
2023/01/06 07:01:11;;;;;;;18.55;1.58;;;4.10;99.90;;;;;;4989278;28;20061;-62
2023/01/06 07:03:39;;;;;;;16.98;2.80;;;4.10;99.90;;;;;;4983956;28;20394;-61
2023/01/06 07:06:10;;;;;;;19.05;2.13;;;4.20;99.90;;;;;;4983326;28;20058;-62
2023/01/06 07:08:38;;;;;;;23.73;4.75;;;;;;;;;;4992345;28;20042;-64
2023/01/06 07:11:05;;;;;;;24.27;2.55;;;4.30;99.90;;;;;;4992329;28;20382;-62
2023/01/06 07:13:33;;;;;;;18.35;2.88;;;4.30;99.90;;;;;;4992001;28;20050;-60
2023/01/06 07:16:00;;;;;;;15.48;4.22;;;4.40;99.90;;;;;;4991808;28;20049;-60
2023/01/06 07:18:28;;;;;;;31.52;3.00;;;4.50;99.90;;;;;;4990264;28;20077;-61
2023/01/06 07:20:56;;;;;;;17.00;2.78;;;;;;;;;;5003505;28;20442;-61
2023/01/06 07:23:24;;;;;;;20.77;2.88;;;4.60;99.90;;;;;;4988958;28;20545;-61
2023/01/06 07:25:57;;;;;;;18.42;2.08;;;4.60;99.90;;;;;;4992652;28;20054;-60
2023/01/06 07:28:28;;;;;;;26.73;2.65;;;4.70;99.90;;;;;;5007229;28;20058;-60
2023/01/06 07:30:56;;;;;;;29.67;3.15;;;6.00;99.90;;;;;;4991505;28;20050;-60
2023/01/06 07:33:24;;;;;;;18.27;1.65;;;4.90;99.90;;;;;;4983339;28;20039;-60
2023/01/06 07:35:53;;;;;;;21.42;2.05;;;5.00;99.90;;;;;;4983885;28;20057;-59
2023/01/06 07:38:21;;;;;;;21.20;2.50;;;5.10;99.90;;;;;;4991592;28;20039;-60
2023/01/06 07:40:50;;;;;;;19.13;2.13;;;5.10;99.90;;;;;;4987547;28;20050;-60
2023/01/06 07:43:17;;;;;;;18.50;1.27;;;5.20;99.90;;;;;;4989073;28;20061;-61
2023/01/06 07:45:46;;;;;;;33.25;2.22;;;5.30;99.90;;;;;;4994673;28;20046;-61
2023/01/06 07:48:15;;;;;;;20.73;2.53;;;5.30;99.90;;;;;;4991106;28;20049;-60
2023/01/06 07:50:43;;;;;;;17.58;1.48;;;5.40;99.90;;;;;;4987601;28;20069;-60
2023/01/06 07:53:12;;;;;;;15.30;2.22;;;5.30;99.90;;;;;;4998544;28;20038;-60
2023/01/06 07:55:39;;;;;;;7.90;1.40;;;5.40;99.90;;;;;;4988274;28;20061;-61
2023/01/06 07:58:08;;;;;;;27.33;2.05;;;5.50;99.90;;;;;;4993882;28;20042;-61
2023/01/06 08:00:36;;;;;;;17.30;2.47;;;5.50;99.90;;;;;;4989255;28;20056;-60
2023/01/06 08:03:06;;;;;;;8.50;1.67;;;5.60;99.90;;;;;;4991509;28;20517;-60
2023/01/06 08:05:40;;;;;;;13.48;1.35;;;5.60;99.90;;;;;;4986920;28;20391;-60
2023/01/06 08:08:09;;;;;;;17.52;1.55;;;5.70;99.90;;;;;;4984713;28;20055;-60
2023/01/06 08:10:41;;;;;;;16.73;1.75;;;5.70;99.90;;;;;;4988777;28;20134;-61
2023/01/06 08:13:09;;;;;;;15.43;1.63;;;5.80;99.90;;;;;;4987928;28;20042;-61
2023/01/06 08:15:37;;;;;;;16.58;1.98;;;5.80;99.90;;;;;;4989380;28;20046;-60
2023/01/06 08:18:06;;;;;;;17.33;2.58;;;5.90;99.90;;;;;;5005678;28;20061;-60
2023/01/06 08:20:34;;;;;;;16.20;2.67;;;5.90;99.90;;;;;;4989717;28;20055;-60
2023/01/06 08:23:01;;;;;;;19.35;2.20;;;5.90;99.90;;;;;;4989298;28;20046;-60
2023/01/06 08:25:29;;;;;;;11.00;1.30;;;5.90;99.90;;;;;;5005668;28;20046;-60
2023/01/06 08:27:58;;;;;;;13.20;1.98;;;6.00;99.90;;;;;;4999395;28;20057;-60
2023/01/06 08:30:26;;;;;;;22.83;2.13;;;6.00;99.90;;;;;;4988255;28;20505;-62
2023/01/06 08:32:58;;;;;;;12.07;1.33;;;6.00;99.90;;;;;;5028739;28;20046;-60
2023/01/06 08:35:26;;;;;;;14.73;2.15;;;6.10;99.90;;;;;;4988693;28;20042;-60
2023/01/06 08:37:54;;;;;;;15.90;1.92;;;6.10;99.90;;;;;;4986286;28;20038;-59
2023/01/06 08:40:25;;;;;;;20.90;1.60;;;6.10;99.90;;;;;;4988424;28;20058;-64
2023/01/06 08:42:53;;;;;;;15.43;2.25;;;6.20;99.90;;;;;;5004356;28;20054;-60
2023/01/06 08:45:20;;;;;;;5.95;1.20;;;6.20;99.90;;;;;;4984970;28;20061;-61
2023/01/06 08:47:48;;;;;;;12.52;1.50;;;6.20;99.90;;;;;;4988600;28;20046;-60
2023/01/06 08:50:16;;;;;;;15.85;1.30;;;6.20;99.90;;;;;;4987748;28;20384;-59
2023/01/06 08:52:43;;;;;;;16.77;1.98;;;6.20;99.90;;;;;;4989533;28;20050;-60
2023/01/06 08:55:11;;;;;;;14.65;1.80;;;6.20;99.90;;;;;;4988768;28;20057;-62
2023/01/06 08:57:38;;;;;;;10.65;1.33;;;6.30;99.90;;;;;;4988329;28;20046;-61
2023/01/06 09:00:07;;;;;;;16.33;2.15;;;6.30;99.90;;;;;;4989016;28;20057;-61
2023/01/06 09:02:34;;;;;;;11.10;1.27;;;6.30;99.90;;;;;;4991081;28;20049;-60
2023/01/06 09:05:03;;;;;;;19.50;3.13;;;6.30;99.90;;;;;;4993081;28;20077;-62
2023/01/06 09:07:31;;;;;;;14.63;1.25;;;6.30;99.90;;;;;;4989473;28;20046;-60
2023/01/06 09:09:59;;;;;;;7.05;2.22;;;6.40;99.90;;;;;;4989076;28;20514;-59
2023/01/06 09:12:26;;;;;;;15.07;2.42;;;6.40;99.90;;;;;;4988943;28;20053;-61
2023/01/06 09:14:54;;;;;;;14.95;1.70;;;6.40;99.90;;;;;;4989783;28;20049;-59
2023/01/06 09:17:22;;;;;;;13.18;2.05;;;6.40;99.90;;;;;;4989111;28;20388;-59
2023/01/06 09:19:49;;;;;;;8.52;0.80;;;6.40;99.90;;;;;;4996487;28;20398;-61
2023/01/06 09:22:17;;;;;;;11.73;1.30;;;6.40;99.90;;;;;;4981318;28;20050;-59
2023/01/06 09:24:45;;;;;;;8.48;1.00;;;6.40;99.90;;;;;;4998263;28;20047;-60
2023/01/06 09:27:13;;;;;;;16.40;1.50;;;6.40;99.90;;;;;;4995521;28;20054;-60
2023/01/06 09:29:41;;;;;;;9.70;1.60;;;6.40;99.90;;;;;;4986214;28;20054;-60
2023/01/06 09:32:08;;;;;;;16.92;1.98;;;6.40;99.90;;;;;;4985377;28;20050;-60
2023/01/06 09:34:36;;;;;;;12.88;1.83;;;6.40;99.90;;;;;;4985418;28;20038;-60
2023/01/06 09:37:04;;;;;;;12.52;2.90;;;6.40;99.90;;;;;;4989965;28;20077;-60
2023/01/06 09:39:31;;;;;;;8.27;1.20;;;6.40;99.90;;;;;;4981533;28;20043;-59
2023/01/06 09:42:05;;;;;;;12.82;1.80;;;6.40;99.90;;;;;;4988560;28;20066;-60
2023/01/06 09:44:47;;;;;;;6.88;1.40;;;6.40;99.90;;;;;;4977756;28;20046;-62
2023/01/06 09:47:19;;;;;;;5.93;1.38;;;6.50;99.90;;;;;;5014810;28;20051;-59
2023/01/06 09:50:01;;;;;;;8.25;1.33;;;6.50;99.90;;;;;;4990186;28;20051;-59
2023/01/06 09:52:36;;;;;;;10.05;1.42;;;6.50;99.90;;;;;;4988497;28;20051;-60
2023/01/06 09:55:15;;;;;;;8.30;0.98;;;6.50;99.90;;;;;;4989350;28;20491;-64
2023/01/06 09:57:54;;;;;;;12.20;1.58;;;6.50;99.90;;;;;;4988638;28;20513;-60
2023/01/06 10:00:33;;;;;;;9.85;1.10;;;6.60;99.90;;;;;;4987679;28;20047;-62
2023/01/06 10:03:01;;;;;;;61.10;2.65;;;6.60;99.90;;;;;;4988973;28;20057;-60
2023/01/06 10:05:56;;;;;;;13.77;1.95;;;6.60;99.90;;;;;;4992753;28;20042;-61
2023/01/06 10:08:50;;;;;;;7.57;1.65;;;6.60;99.90;;;;;;4993378;28;20482;-64
2023/01/06 10:11:30;;;;;;;11.50;3.22;;;6.70;99.90;;;;;;4993748;28;20054;-62
2023/01/06 10:14:03;;;;;;;11.75;2.00;;;6.70;99.90;;;;;;4992978;28;20058;-63
2023/01/06 10:16:52;;;;;;;9.38;1.83;;;6.70;99.90;;;;;;4992726;28;20057;-59
2023/01/06 10:19:30;;;;;;;10.82;1.42;;;6.80;99.90;;;;;;5007893;28;20494;-61
2023/01/06 10:22:26;;;;;;;4.82;1.60;;;6.80;99.90;;;;;;4992557;28;20061;-59
2023/01/06 10:25:14;;;;;;;22.52;1.58;;;6.80;99.90;;;;;;4992640;28;20042;-58
2023/01/06 10:27:50;;;;;;;13.48;1.52;;;6.90;99.90;;;;;;5005488;28;20043;-58
2023/01/06 10:30:30;;;;;;;5.22;1.42;;;6.90;99.90;;;;;;4993291;28;20061;-58
2023/01/06 10:33:04;;;;;;;11.90;1.75;;;7.00;99.90;;;;;;4989497;28;20046;-59
2023/01/06 10:35:32;;;;;;;13.35;1.48;;;7.00;99.90;;;;;;4990521;28;20046;-58
2023/01/06 10:38:04;;;;;;;9.85;1.75;;;7.00;99.90;;;;;;4993423;28;20395;-60
2023/01/06 10:40:35;;;;;;;10.50;1.52;;;7.10;99.90;;;;;;4992867;28;20054;-58
2023/01/06 10:43:05;;;;;;;;;;;7.20;99.90;;;;;;4992845;28;20057;-59
2023/01/06 10:45:43;;;;;;;19.35;4.72;;;7.20;99.90;;;;;;4993043;28;20286;-58
2023/01/06 10:48:19;;;;;;;14.77;2.03;;;7.30;99.90;;;;;;5000551;28;20109;-63
2023/01/06 10:50:47;;;;;;;14.85;2.75;;;7.30;99.90;;;;;;4999349;28;20053;-59
2023/01/06 10:53:16;;;;;;;6.38;1.45;;;7.30;99.90;;;;;;4991598;28;20049;-59
2023/01/06 10:55:50;;;;;;;12.95;3.50;;;7.30;99.90;;;;;;4990879;28;20494;-59
2023/01/06 10:58:34;;;;;;;12.45;1.92;;;7.30;99.90;;;;;;5002091;28;20486;-58
2023/01/06 11:01:10;;;;;;;11.02;1.95;;;7.30;99.90;;;;;;4994045;28;20482;-57
2023/01/06 11:03:44;;;;;;;19.83;5.75;;;7.30;99.90;;;;;;4991019;28;20038;-58
2023/01/06 11:06:27;;;;;;;21.95;7.40;;;7.40;99.90;;;;;;4991905;28;20049;-57
2023/01/06 11:08:55;;;;;;;21.75;3.35;;;7.50;99.90;;;;;;5006771;28;20129;-63
2023/01/06 11:11:23;;;;;;;11.25;1.23;;;7.50;99.90;;;;;;5005225;28;20034;-61
2023/01/06 11:14:04;;;;;;;8.05;2.33;;;7.60;99.90;;;;;;4991805;28;20054;-59
2023/01/06 11:16:35;;;;;;;7.70;1.35;;;7.50;99.90;;;;;;4992277;28;20046;-63
2023/01/06 11:19:05;;;;;;;6.32;1.83;;;7.60;99.90;;;;;;4997867;28;20647;-58
2023/01/06 11:21:45;;;;;;;8.90;1.55;;;7.70;99.90;;;;;;5005650;28;20050;-58
2023/01/06 11:24:20;;;;;;;8.65;1.17;;;7.70;99.90;;;;;;4999537;28;20050;-59
2023/01/06 11:27:13;;;;;;;20.75;2.67;;;7.70;99.90;;;;;;4990891;28;20041;-59
2023/01/06 11:29:41;;;;;;;7.63;1.38;;;7.80;99.90;;;;;;4989400;28;20050;-59
2023/01/06 11:32:22;;;;;;;6.25;1.48;;;7.80;99.90;;;;;;4986117;28;20057;-60
2023/01/06 11:34:51;;;;;;;11.50;1.42;;;7.80;99.90;;;;;;4980798;28;20050;-57
2023/01/06 11:37:38;;;;;;;14.30;1.77;;;7.80;99.90;;;;;;4981555;28;20053;-58
2023/01/06 11:40:21;;;;;;;8.18;1.38;;;7.80;99.90;;;;;;4979669;28;20486;-58
2023/01/06 11:42:53;;;;;;;10.27;1.77;;;7.80;99.90;;;;;;4988625;28;20070;-58
2023/01/06 11:45:41;;;;;;;8.32;1.10;;;7.90;99.90;;;;;;4989293;28;20539;-59
2023/01/06 11:48:23;;;;;;;6.97;1.10;;;7.90;99.90;;;;;;4991024;28;20050;-58
2023/01/06 11:50:59;;;;;;;6.10;1.15;;;7.90;99.90;;;;;;4991278;28;20054;-59
2023/01/06 11:53:28;;;;;;;8.35;1.65;;;7.90;99.90;;;;;;4991313;28;20046;-59
2023/01/06 11:55:58;;;;;;;5.30;0.70;;;8.00;99.90;;;;;;4995730;28;20477;-58
2023/01/06 11:58:56;;;;;;;9.18;1.17;;;7.90;99.90;;;;;;5010917;28;20038;-58
2023/01/06 12:01:46;;;;;;;11.45;0.95;;;8.00;99.90;;;;;;4971087;28;20046;-58
2023/01/06 12:04:22;;;;;;;3.30;0.95;;;8.00;99.90;;;;;;4989861;28;20065;-58
2023/01/06 12:06:54;;;;;;;12.10;0.93;;;8.00;99.90;;;;;;4989964;28;20077;-58
2023/01/06 12:09:33;;;;;;;9.07;1.00;;;8.00;99.90;;;;;;4991505;28;20069;-59
2023/01/06 12:12:08;;;;;;;4.57;1.52;;;8.10;99.90;;;;;;4991307;28;20050;-64
2023/01/06 12:14:38;;;;;;;6.63;0.75;;;8.20;99.90;;;;;;4970782;28;20154;-62
2023/01/06 12:17:07;;;;;;;1.50;0.80;;;8.10;99.90;;;;;;4984727;28;20054;-58
2023/01/06 12:19:38;;;;;;;4.00;1.10;;;8.10;99.90;;;;;;4979666;28;20402;-59
2023/01/06 12:22:18;;;;;;;3.00;0.90;;;8.20;99.90;;;;;;4988008;28;20042;-58
2023/01/06 12:24:49;;;;;;;5.53;1.45;;;8.20;99.90;;;;;;4990995;28;20047;-59
2023/01/06 12:27:38;;;;;;;4.75;0.98;;;8.20;99.90;;;;;;5004993;28;20046;-58
2023/01/06 12:30:41;;;;;;;2.45;1.10;;;8.20;99.90;;;;;;4989969;28;20387;-58
2023/01/06 12:33:37;;;;;;;4.20;1.23;;;8.20;99.90;;;;;;4987815;28;20050;-59
2023/01/06 12:36:23;;;;;;;5.07;1.40;;;8.20;99.90;;;;;;4988968;28;20053;-64
2023/01/06 12:38:54;;;;;;;9.52;1.90;;;8.20;99.90;;;;;;4990499;28;20046;-59
2023/01/06 12:41:34;;;;;;;7.28;1.63;;;8.20;99.90;;;;;;4990886;28;20053;-59
2023/01/06 12:44:21;;;;;;;6.13;2.13;;;8.20;99.90;;;;;;4989267;28;20050;-58
2023/01/06 12:47:26;;;;;;;8.85;2.17;;;8.20;99.90;;;;;;4990655;28;20045;-58
2023/01/06 12:50:02;;;;;;;8.43;2.10;;;8.20;99.90;;;;;;4990446;28;20529;-59
2023/01/06 12:52:41;;;;;;;8.48;3.03;;;8.30;99.90;;;;;;4993567;28;20054;-59
2023/01/06 12:55:15;;;;;;;9.13;3.25;;;8.40;99.90;;;;;;4989466;28;20479;-59
2023/01/06 12:58:11;;;;;;;5.25;3.63;;;8.60;99.90;;;;;;5008758;28;20056;-59
2023/01/06 13:01:04;;;;;;;82.53;32.42;;;8.70;99.90;;;;;;5010243;28;20061;-60
2023/01/06 13:04:06;;;;;;;39.10;14.77;;;8.70;99.90;;;;;;4998026;28;20057;-59
2023/01/06 13:06:57;;;;;;;50.67;18.38;;;8.60;99.90;;;;;;4988574;28;20038;-58
2023/01/06 13:09:40;;;;;;;8.25;3.92;;;8.60;99.90;;;;;;4990334;28;20502;-58
2023/01/06 13:12:46;;;;;;;5.95;2.60;;;8.60;99.90;;;;;;4971736;28;20061;-58
2023/01/06 13:15:17;;;;;;;6.20;2.10;;;8.60;99.90;;;;;;4987699;28;20038;-59
2023/01/06 13:17:56;;;;;;;7.32;1.95;;;8.60;99.90;;;;;;4989828;28;20053;-59
2023/01/06 13:20:39;;;;;;;8.82;2.17;;;8.50;99.90;;;;;;4974944;28;20062;-58
2023/01/06 13:23:34;;;;;;;7.75;2.53;;;8.60;99.90;;;;;;4978779;28;20051;-58
2023/01/06 13:26:05;;;;;;;9.25;2.58;;;8.60;99.90;;;;;;4989020;28;20054;-58
2023/01/06 13:29:05;;;;;;;5.93;2.72;;;8.60;99.90;;;;;;4989700;28;20042;-59
2023/01/06 13:31:58;;;;;;;8.30;2.05;;;8.60;99.90;;;;;;4973707;28;20066;-60
2023/01/06 13:34:54;;;;;;;11.75;1.90;;;8.70;99.90;;;;;;4986865;28;20250;-59
2023/01/06 13:37:28;;;;;;;10.20;2.20;;;8.70;99.90;;;;;;5003251;28;20046;-59
2023/01/06 13:40:19;;;;;;;3.47;1.92;;;8.80;99.90;;;;;;4991320;28;20061;-58